YCDUYFRT

Guest
Details From YCDU - Ceduna
To YFRT - Forrest
Flight Number -
Tags generated
Created
Modified
Stats Distance 318 nm / 588 km
Max Altitude 34,000 ft / 10,363 m
Waypoints 5
Social Downloads 0
Likes 0
Share VATSIM

Download

Looking for another format? Having issues loading an existing format? Contact us
Advertisement - Login to hide

Notes

Basic altitude profile: - Ascent Rate: 2500ft/min - Ascent Speed: 250kts - Cruise Altitude: 35000ft - Cruise Speed: 420kts - Descent Rate: 1500ft/min - Descent Speed: 250kts Options: - Use NATs: yes - Use PACOTS: yes - Use low airways: yes - Use high airways: yes

Route

YCDU CDU A585 BEZZA J141 FRT YFRT

ID Type Via Altitude Latitude Longitude Leg Dist Tot Dist Heading (true) Name
O YCDU APT - 0 ft / 0 m -32.13060˚ 133.70977˚ - 0 nm - Ceduna
CDU NDB - 300 ft / 91 m -32.12667˚ 133.72694˚ 0 nm 0 nm 75° / 75° CEDUNA NDB
BEZZA FIX A585 (AWY-LO) 34,000 ft / 10,363 m -30.85833˚ 131.80833˚ 124 nm 125 nm 307° / 308° -
FRT NDB J141 (AWY-LO) 18,000 ft / 5,486 m -30.85500˚ 128.09944˚ 191 nm 316 nm 269° / 271° FORREST NDB
O YFRT APT - 0 ft / 0 m -30.83818˚ 128.11482˚ 1 nm 317 nm 38° / 38° Forrest

Altitude Profile

Advertisement - Login to hide

Weather


0- 5 10 15 20 25 30 35+ Temperature / ° C

Clouds and Precipitation
Forecast for 2017-12-16 00:00 UTC. Updated an hour ago

Ground ~20,000 ft ~40,000 ft Winds

YCDU

Details ICAO YCDU (CED)
Name Ceduna
Region Australia
Timezone Australia/Adelaide (UTC+10.5)
Stats Elevation 77 ft / 23 m (AMSL)
Location -32.130596° 133.709774°
Runways 2
Magnetic Variation 5.479° E

METAR

YCDU 151900Z AUTO 05003KT 9999 // NCD 10/09 Q1013

Decode

TAF

Not found

Departure Runways

ID Width Length Bearing (true) Bearing (mag) Surface Threshold Offset Overrun Length
11 98 ft / 30 m 5,701 ft / 1,738 m 110.90° 105.42° Asphalt 0 ft / 0 m 0 ft / 0 m
17 112 ft / 34 m 3,823 ft / 1,165 m 173.40° 167.92° Unknown 0 ft / 0 m 0 ft / 0 m
29 98 ft / 30 m 5,701 ft / 1,738 m 290.90° 285.42° Asphalt 0 ft / 0 m 0 ft / 0 m
35 112 ft / 34 m 3,823 ft / 1,165 m 353.40° 347.92° Unknown 0 ft / 0 m 0 ft / 0 m

YFRT

Details ICAO YFRT
Name Forrest
Region Australia
Timezone Australia/Perth (UTC+8.0)
Stats Elevation 510 ft / 155 m (AMSL)
Location -30.838180° 128.114817°
Runways 2
Magnetic Variation 3.287° E

METAR

YFRT 152000Z AUTO 05011KT //// // ////// 16/13 Q1012

Decode

TAF

TAF AMD YFRT 151821Z 1518/1608 06014G25KT CAVOK

Decode

Destination Runways

ID Width Length Bearing (true) Bearing (mag) Surface Threshold Offset Overrun Length
18 148 ft / 45 m 4,999 ft / 1,524 m 179.60° 176.31° Asphalt 0 ft / 0 m 66 ft / 20 m
27 164 ft / 50 m 4,477 ft / 1,365 m 273.80° 270.51° Asphalt 0 ft / 0 m 26 ft / 8 m
36 148 ft / 45 m 4,999 ft / 1,524 m 359.60° 356.31° Asphalt 0 ft / 0 m 59 ft / 18 m
9 164 ft / 50 m 4,477 ft / 1,365 m 93.81° 90.52° Asphalt 0 ft / 0 m 62 ft / 19 m

Popular Alternatives